Aviation Digital Data Service (ADDS)

Output produced by METARs form (2233 UTC 30 April 2016)
found at http://aviationweather.gov/adds/metars/
 
KLCH 302153Z AUTO 21007KT 10SM FEW027 28/23 A2970 RMK AO2 SLP066 T02830228 $